sensor_id;sensor_type;location;lat;lon;timestamp;P1;durP1;ratioP1;P2;durP2;ratioP2
12181;SDS011;6154;51.550;12.138;2023-02-08T00:01:21;22.02;;;12.35;;
12181;SDS011;6154;51.550;12.138;2023-02-08T00:03:51;30.90;;;11.67;;
12181;SDS011;6154;51.550;12.138;2023-02-08T00:06:20;28.35;;;13.27;;
12181;SDS011;6154;51.550;12.138;2023-02-08T00:08:48;29.08;;;13.20;;
12181;SDS011;6154;51.550;12.138;2023-02-08T00:11:17;32.17;;;13.70;;
12181;SDS011;6154;51.550;12.138;2023-02-08T00:13:47;32.77;;;13.57;;
12181;SDS011;6154;51.550;12.138;2023-02-08T00:16:15;34.07;;;13.60;;
12181;SDS011;6154;51.550;12.138;2023-02-08T00:18:44;28.77;;;13.23;;
12181;SDS011;6154;51.550;12.138;2023-02-08T00:21:13;28.00;;;12.23;;
12181;SDS011;6154;51.550;12.138;2023-02-08T00:23:43;19.02;;;8.90;;
12181;SDS011;6154;51.550;12.138;2023-02-08T00:26:12;24.87;;;10.98;;
12181;SDS011;6154;51.550;12.138;2023-02-08T00:28:42;25.33;;;11.95;;
12181;SDS011;6154;51.550;12.138;2023-02-08T00:31:11;30.17;;;12.97;;
12181;SDS011;6154;51.550;12.138;2023-02-08T00:33:40;31.00;;;14.02;;
12181;SDS011;6154;51.550;12.138;2023-02-08T00:36:09;22.10;;;9.77;;
12181;SDS011;6154;51.550;12.138;2023-02-08T00:38:40;40.43;;;12.83;;
12181;SDS011;6154;51.550;12.138;2023-02-08T00:41:08;31.45;;;13.70;;
12181;SDS011;6154;51.550;12.138;2023-02-08T00:43:37;30.73;;;13.20;;
12181;SDS011;6154;51.550;12.138;2023-02-08T00:46:05;21.37;;;11.38;;
12181;SDS011;6154;51.550;12.138;2023-02-08T00:48:34;25.48;;;11.25;;
12181;SDS011;6154;51.550;12.138;2023-02-08T00:51:04;20.83;;;11.00;;
12181;SDS011;6154;51.550;12.138;2023-02-08T00:53:34;26.73;;;12.43;;
12181;SDS011;6154;51.550;12.138;2023-02-08T00:56:04;28.67;;;12.20;;
12181;SDS011;6154;51.550;12.138;2023-02-08T00:58:33;29.67;;;13.80;;
12181;SDS011;6154;51.550;12.138;2023-02-08T01:01:02;30.77;;;12.97;;
12181;SDS011;6154;51.550;12.138;2023-02-08T01:03:32;34.43;;;14.70;;
12181;SDS011;6154;51.550;12.138;2023-02-08T01:06:04;19.57;;;10.13;;
12181;SDS011;6154;51.550;12.138;2023-02-08T01:08:34;25.90;;;9.83;;
12181;SDS011;6154;51.550;12.138;2023-02-08T01:11:04;21.00;;;9.27;;
12181;SDS011;6154;51.550;12.138;2023-02-08T01:13:33;18.17;;;10.37;;
12181;SDS011;6154;51.550;12.138;2023-02-08T01:16:05;23.33;;;10.37;;
12181;SDS011;6154;51.550;12.138;2023-02-08T01:18:37;21.43;;;11.13;;
12181;SDS011;6154;51.550;12.138;2023-02-08T01:21:07;22.83;;;12.55;;
12181;SDS011;6154;51.550;12.138;2023-02-08T01:23:36;24.57;;;11.43;;
12181;SDS011;6154;51.550;12.138;2023-02-08T01:26:05;23.90;;;10.37;;
12181;SDS011;6154;51.550;12.138;2023-02-08T01:28:37;22.50;;;10.53;;
12181;SDS011;6154;51.550;12.138;2023-02-08T01:31:08;24.40;;;11.40;;
12181;SDS011;6154;51.550;12.138;2023-02-08T01:33:40;30.63;;;11.93;;
12181;SDS011;6154;51.550;12.138;2023-02-08T01:36:08;22.63;;;11.73;;
12181;SDS011;6154;51.550;12.138;2023-02-08T01:38:39;27.43;;;12.27;;
12181;SDS011;6154;51.550;12.138;2023-02-08T01:41:12;23.70;;;11.73;;
12181;SDS011;6154;51.550;12.138;2023-02-08T01:43:59;24.45;;;12.13;;
12181;SDS011;6154;51.550;12.138;2023-02-08T01:46:49;24.83;;;12.20;;
12181;SDS011;6154;51.550;12.138;2023-02-08T01:49:21;27.40;;;13.27;;
12181;SDS011;6154;51.550;12.138;2023-02-08T01:51:55;35.13;;;13.37;;
12181;SDS011;6154;51.550;12.138;2023-02-08T01:54:26;30.37;;;13.10;;
12181;SDS011;6154;51.550;12.138;2023-02-08T01:56:58;22.37;;;12.17;;
12181;SDS011;6154;51.550;12.138;2023-02-08T01:59:33;25.12;;;11.02;;
12181;SDS011;6154;51.550;12.138;2023-02-08T02:02:06;21.53;;;11.93;;
12181;SDS011;6154;51.550;12.138;2023-02-08T02:04:39;28.00;;;11.70;;
12181;SDS011;6154;51.550;12.138;2023-02-08T02:07:10;29.17;;;11.88;;
12181;SDS011;6154;51.550;12.138;2023-02-08T02:09:41;19.30;;;11.87;;
12181;SDS011;6154;51.550;12.138;2023-02-08T02:12:14;24.23;;;11.93;;
12181;SDS011;6154;51.550;12.138;2023-02-08T02:14:44;23.30;;;11.05;;
12181;SDS011;6154;51.550;12.138;2023-02-08T02:17:13;26.13;;;12.80;;
12181;SDS011;6154;51.550;12.138;2023-02-08T02:19:49;30.73;;;12.00;;
12181;SDS011;6154;51.550;12.138;2023-02-08T02:22:29;22.65;;;11.02;;
12181;SDS011;6154;51.550;12.138;2023-02-08T02:25:31;19.63;;;9.53;;
12181;SDS011;6154;51.550;12.138;2023-02-08T02:28:29;25.37;;;10.57;;
12181;SDS011;6154;51.550;12.138;2023-02-08T02:31:33;29.80;;;11.93;;
12181;SDS011;6154;51.550;12.138;2023-02-08T02:34:22;23.92;;;11.50;;
12181;SDS011;6154;51.550;12.138;2023-02-08T02:36:58;26.43;;;13.23;;
12181;SDS011;6154;51.550;12.138;2023-02-08T02:39:37;24.80;;;11.70;;
12181;SDS011;6154;51.550;12.138;2023-02-08T02:42:12;21.13;;;11.60;;
12181;SDS011;6154;51.550;12.138;2023-02-08T02:46:04;23.10;;;11.30;;
12181;SDS011;6154;51.550;12.138;2023-02-08T02:48:43;28.20;;;10.32;;
12181;SDS011;6154;51.550;12.138;2023-02-08T02:51:17;23.65;;;11.10;;
12181;SDS011;6154;51.550;12.138;2023-02-08T02:53:54;19.85;;;9.52;;
12181;SDS011;6154;51.550;12.138;2023-02-08T02:56:29;27.53;;;11.73;;
12181;SDS011;6154;51.550;12.138;2023-02-08T02:59:04;21.60;;;10.37;;
12181;SDS011;6154;51.550;12.138;2023-02-08T03:01:34;18.27;;;9.53;;
12181;SDS011;6154;51.550;12.138;2023-02-08T03:04:12;25.80;;;10.50;;
12181;SDS011;6154;51.550;12.138;2023-02-08T03:06:46;23.03;;;10.13;;
12181;SDS011;6154;51.550;12.138;2023-02-08T03:12:46;29.83;;;11.38;;
12181;SDS011;6154;51.550;12.138;2023-02-08T03:15:27;25.10;;;11.03;;
12181;SDS011;6154;51.550;12.138;2023-02-08T03:18:04;25.83;;;11.23;;
12181;SDS011;6154;51.550;12.138;2023-02-08T03:25:16;21.43;;;10.57;;
12181;SDS011;6154;51.550;12.138;2023-02-08T03:27:50;24.07;;;11.03;;
12181;SDS011;6154;51.550;12.138;2023-02-08T03:30:27;21.23;;;9.93;;
12181;SDS011;6154;51.550;12.138;2023-02-08T03:33:00;24.80;;;11.13;;
12181;SDS011;6154;51.550;12.138;2023-02-08T03:35:33;22.50;;;10.77;;
12181;SDS011;6154;51.550;12.138;2023-02-08T03:38:08;25.93;;;12.70;;
12181;SDS011;6154;51.550;12.138;2023-02-08T03:40:40;21.27;;;9.33;;
12181;SDS011;6154;51.550;12.138;2023-02-08T03:43:12;21.83;;;8.63;;
12181;SDS011;6154;51.550;12.138;2023-02-08T03:45:45;12.23;;;6.33;;
12181;SDS011;6154;51.550;12.138;2023-02-08T03:48:17;16.47;;;8.67;;
12181;SDS011;6154;51.550;12.138;2023-02-08T03:50:50;20.20;;;10.37;;
12181;SDS011;6154;51.550;12.138;2023-02-08T03:53:21;22.93;;;10.07;;
12181;SDS011;6154;51.550;12.138;2023-02-08T03:55:54;15.27;;;8.57;;
12181;SDS011;6154;51.550;12.138;2023-02-08T03:58:27;23.93;;;10.93;;
12181;SDS011;6154;51.550;12.138;2023-02-08T04:01:02;20.50;;;10.73;;
12181;SDS011;6154;51.550;12.138;2023-02-08T04:03:35;23.47;;;10.70;;
12181;SDS011;6154;51.550;12.138;2023-02-08T04:06:04;30.43;;;10.73;;
12181;SDS011;6154;51.550;12.138;2023-02-08T04:08:33;21.53;;;11.40;;
12181;SDS011;6154;51.550;12.138;2023-02-08T04:11:02;18.30;;;9.43;;
12181;SDS011;6154;51.550;12.138;2023-02-08T04:13:30;21.97;;;10.30;;
12181;SDS011;6154;51.550;12.138;2023-02-08T04:15:59;18.93;;;9.50;;
12181;SDS011;6154;51.550;12.138;2023-02-08T04:18:27;21.23;;;10.33;;
12181;SDS011;6154;51.550;12.138;2023-02-08T04:20:55;21.50;;;10.73;;
12181;SDS011;6154;51.550;12.138;2023-02-08T04:23:23;20.73;;;10.33;;
12181;SDS011;6154;51.550;12.138;2023-02-08T04:25:52;17.60;;;8.90;;
12181;SDS011;6154;51.550;12.138;2023-02-08T04:28:21;18.70;;;10.97;;
12181;SDS011;6154;51.550;12.138;2023-02-08T04:30:50;20.37;;;9.57;;
12181;SDS011;6154;51.550;12.138;2023-02-08T04:33:18;22.43;;;9.93;;
12181;SDS011;6154;51.550;12.138;2023-02-08T04:35:47;21.70;;;10.93;;
12181;SDS011;6154;51.550;12.138;2023-02-08T04:38:15;20.50;;;10.73;;
12181;SDS011;6154;51.550;12.138;2023-02-08T04:40:44;23.83;;;10.73;;
12181;SDS011;6154;51.550;12.138;2023-02-08T04:43:12;22.20;;;10.87;;
12181;SDS011;6154;51.550;12.138;2023-02-08T04:45:41;22.03;;;10.37;;
12181;SDS011;6154;51.550;12.138;2023-02-08T04:48:10;21.87;;;10.37;;
12181;SDS011;6154;51.550;12.138;2023-02-08T04:50:41;19.67;;;10.53;;
12181;SDS011;6154;51.550;12.138;2023-02-08T04:53:10;27.37;;;12.27;;
12181;SDS011;6154;51.550;12.138;2023-02-08T04:55:45;22.93;;;11.13;;
12181;SDS011;6154;51.550;12.138;2023-02-08T04:58:20;28.23;;;12.40;;
12181;SDS011;6154;51.550;12.138;2023-02-08T05:00:50;17.87;;;11.70;;
12181;SDS011;6154;51.550;12.138;2023-02-08T05:03:18;22.37;;;11.10;;
12181;SDS011;6154;51.550;12.138;2023-02-08T05:05:54;25.60;;;11.50;;
12181;SDS011;6154;51.550;12.138;2023-02-08T05:08:23;21.77;;;11.00;;
12181;SDS011;6154;51.550;12.138;2023-02-08T05:10:52;31.90;;;12.23;;
12181;SDS011;6154;51.550;12.138;2023-02-08T05:13:20;19.67;;;10.33;;
12181;SDS011;6154;51.550;12.138;2023-02-08T05:15:48;25.63;;;11.03;;
12181;SDS011;6154;51.550;12.138;2023-02-08T05:18:18;21.37;;;10.70;;
12181;SDS011;6154;51.550;12.138;2023-02-08T05:20:52;23.00;;;10.37;;
12181;SDS011;6154;51.550;12.138;2023-02-08T05:23:21;24.77;;;11.63;;
12181;SDS011;6154;51.550;12.138;2023-02-08T05:25:49;27.33;;;11.73;;
12181;SDS011;6154;51.550;12.138;2023-02-08T05:28:18;24.03;;;11.67;;
12181;SDS011;6154;51.550;12.138;2023-02-08T05:30:46;25.87;;;11.37;;
12181;SDS011;6154;51.550;12.138;2023-02-08T05:33:15;26.83;;;12.07;;
12181;SDS011;6154;51.550;12.138;2023-02-08T05:35:44;22.07;;;10.50;;
12181;SDS011;6154;51.550;12.138;2023-02-08T05:38:13;24.10;;;11.57;;
12181;SDS011;6154;51.550;12.138;2023-02-08T05:40:41;27.50;;;12.47;;
12181;SDS011;6154;51.550;12.138;2023-02-08T05:43:09;23.00;;;10.57;;
12181;SDS011;6154;51.550;12.138;2023-02-08T05:45:38;21.23;;;11.43;;
12181;SDS011;6154;51.550;12.138;2023-02-08T05:48:06;23.50;;;11.33;;
12181;SDS011;6154;51.550;12.138;2023-02-08T05:50:34;23.50;;;12.13;;
12181;SDS011;6154;51.550;12.138;2023-02-08T05:53:05;25.50;;;12.80;;
12181;SDS011;6154;51.550;12.138;2023-02-08T05:55:33;31.40;;;13.50;;
12181;SDS011;6154;51.550;12.138;2023-02-08T05:58:01;25.27;;;11.17;;
12181;SDS011;6154;51.550;12.138;2023-02-08T06:00:29;23.60;;;11.57;;
12181;SDS011;6154;51.550;12.138;2023-02-08T06:02:58;21.20;;;11.30;;
12181;SDS011;6154;51.550;12.138;2023-02-08T06:05:26;26.37;;;11.43;;
12181;SDS011;6154;51.550;12.138;2023-02-08T06:07:55;26.00;;;12.20;;
12181;SDS011;6154;51.550;12.138;2023-02-08T06:10:25;30.63;;;12.53;;
12181;SDS011;6154;51.550;12.138;2023-02-08T06:12:55;27.97;;;12.80;;
12181;SDS011;6154;51.550;12.138;2023-02-08T06:15:23;20.67;;;10.47;;
12181;SDS011;6154;51.550;12.138;2023-02-08T06:17:52;23.70;;;11.40;;
12181;SDS011;6154;51.550;12.138;2023-02-08T06:20:20;29.43;;;12.63;;
12181;SDS011;6154;51.550;12.138;2023-02-08T06:22:48;31.20;;;12.67;;
12181;SDS011;6154;51.550;12.138;2023-02-08T06:25:17;24.90;;;10.23;;
12181;SDS011;6154;51.550;12.138;2023-02-08T06:27:46;25.90;;;12.03;;
12181;SDS011;6154;51.550;12.138;2023-02-08T06:30:15;27.27;;;10.53;;
12181;SDS011;6154;51.550;12.138;2023-02-08T06:32:43;27.10;;;11.77;;
12181;SDS011;6154;51.550;12.138;2023-02-08T06:35:12;23.90;;;11.27;;
12181;SDS011;6154;51.550;12.138;2023-02-08T06:37:42;22.27;;;11.00;;
12181;SDS011;6154;51.550;12.138;2023-02-08T06:40:11;12.60;;;6.47;;
12181;SDS011;6154;51.550;12.138;2023-02-08T06:42:41;12.30;;;8.07;;
12181;SDS011;6154;51.550;12.138;2023-02-08T06:45:11;20.57;;;8.47;;
12181;SDS011;6154;51.550;12.138;2023-02-08T06:47:39;18.87;;;10.03;;
12181;SDS011;6154;51.550;12.138;2023-02-08T06:50:08;25.07;;;11.10;;
12181;SDS011;6154;51.550;12.138;2023-02-08T06:52:37;24.67;;;11.10;;
12181;SDS011;6154;51.550;12.138;2023-02-08T06:55:05;23.13;;;11.47;;
12181;SDS011;6154;51.550;12.138;2023-02-08T06:57:34;20.87;;;11.67;;
12181;SDS011;6154;51.550;12.138;2023-02-08T07:00:02;18.33;;;9.60;;
12181;SDS011;6154;51.550;12.138;2023-02-08T07:02:32;27.37;;;11.57;;
12181;SDS011;6154;51.550;12.138;2023-02-08T07:05:01;21.60;;;9.50;;
12181;SDS011;6154;51.550;12.138;2023-02-08T07:07:29;19.10;;;8.70;;
12181;SDS011;6154;51.550;12.138;2023-02-08T07:09:58;18.60;;;9.10;;
12181;SDS011;6154;51.550;12.138;2023-02-08T07:12:26;19.03;;;10.50;;
12181;SDS011;6154;51.550;12.138;2023-02-08T07:14:54;27.03;;;11.80;;
12181;SDS011;6154;51.550;12.138;2023-02-08T07:17:23;23.17;;;10.37;;
12181;SDS011;6154;51.550;12.138;2023-02-08T07:19:52;21.03;;;10.67;;
12181;SDS011;6154;51.550;12.138;2023-02-08T07:22:21;17.53;;;10.23;;
12181;SDS011;6154;51.550;12.138;2023-02-08T07:24:49;15.63;;;8.63;;
12181;SDS011;6154;51.550;12.138;2023-02-08T07:27:17;20.93;;;11.57;;
12181;SDS011;6154;51.550;12.138;2023-02-08T07:29:45;11.57;;;6.17;;
12181;SDS011;6154;51.550;12.138;2023-02-08T07:32:14;20.47;;;8.73;;
12181;SDS011;6154;51.550;12.138;2023-02-08T07:34:42;20.97;;;11.33;;
12181;SDS011;6154;51.550;12.138;2023-02-08T07:37:12;17.60;;;8.77;;
12181;SDS011;6154;51.550;12.138;2023-02-08T07:39:40;18.00;;;9.60;;
12181;SDS011;6154;51.550;12.138;2023-02-08T07:42:09;29.93;;;12.20;;
12181;SDS011;6154;51.550;12.138;2023-02-08T07:44:39;24.47;;;12.03;;
12181;SDS011;6154;51.550;12.138;2023-02-08T07:47:07;21.73;;;11.10;;
12181;SDS011;6154;51.550;12.138;2023-02-08T07:49:35;27.17;;;12.30;;
12181;SDS011;6154;51.550;12.138;2023-02-08T07:52:03;35.33;;;12.90;;
12181;SDS011;6154;51.550;12.138;2023-02-08T07:54:33;25.93;;;12.40;;
12181;SDS011;6154;51.550;12.138;2023-02-08T07:57:02;27.77;;;11.60;;
12181;SDS011;6154;51.550;12.138;2023-02-08T07:59:30;26.93;;;12.77;;
12181;SDS011;6154;51.550;12.138;2023-02-08T08:01:58;34.77;;;13.37;;
12181;SDS011;6154;51.550;12.138;2023-02-08T08:04:26;25.50;;;12.97;;
12181;SDS011;6154;51.550;12.138;2023-02-08T08:06:54;20.63;;;10.13;;
12181;SDS011;6154;51.550;12.138;2023-02-08T08:09:23;25.00;;;11.13;;
12181;SDS011;6154;51.550;12.138;2023-02-08T08:11:52;21.12;;;10.05;;
12181;SDS011;6154;51.550;12.138;2023-02-08T08:14:20;29.57;;;11.63;;
12181;SDS011;6154;51.550;12.138;2023-02-08T08:16:48;26.25;;;11.55;;
12181;SDS011;6154;51.550;12.138;2023-02-08T08:19:16;23.53;;;10.70;;
12181;SDS011;6154;51.550;12.138;2023-02-08T08:21:45;23.97;;;9.70;;
12181;SDS011;6154;51.550;12.138;2023-02-08T08:24:14;27.08;;;11.48;;
12181;SDS011;6154;51.550;12.138;2023-02-08T08:26:43;21.65;;;11.98;;
12181;SDS011;6154;51.550;12.138;2023-02-08T08:29:12;29.95;;;13.90;;
12181;SDS011;6154;51.550;12.138;2023-02-08T08:31:41;24.17;;;12.13;;
12181;SDS011;6154;51.550;12.138;2023-02-08T08:34:10;22.05;;;11.40;;
12181;SDS011;6154;51.550;12.138;2023-02-08T08:36:38;27.00;;;12.25;;
12181;SDS011;6154;51.550;12.138;2023-02-08T08:39:06;25.17;;;12.13;;
12181;SDS011;6154;51.550;12.138;2023-02-08T08:41:34;27.77;;;13.70;;
12181;SDS011;6154;51.550;12.138;2023-02-08T08:44:03;24.23;;;12.52;;
12181;SDS011;6154;51.550;12.138;2023-02-08T08:46:32;34.60;;;13.02;;
12181;SDS011;6154;51.550;12.138;2023-02-08T08:49:01;32.72;;;15.75;;
12181;SDS011;6154;51.550;12.138;2023-02-08T08:51:28;29.23;;;14.48;;
12181;SDS011;6154;51.550;12.138;2023-02-08T08:54:01;34.67;;;14.80;;
12181;SDS011;6154;51.550;12.138;2023-02-08T08:56:29;23.52;;;13.48;;
12181;SDS011;6154;51.550;12.138;2023-02-08T08:58:58;30.95;;;13.02;;
12181;SDS011;6154;51.550;12.138;2023-02-08T09:01:26;27.35;;;12.70;;
12181;SDS011;6154;51.550;12.138;2023-02-08T09:03:56;27.35;;;12.15;;
12181;SDS011;6154;51.550;12.138;2023-02-08T09:06:24;22.77;;;11.88;;
12181;SDS011;6154;51.550;12.138;2023-02-08T09:08:53;33.15;;;13.77;;
12181;SDS011;6154;51.550;12.138;2023-02-08T09:11:21;31.40;;;13.55;;
12181;SDS011;6154;51.550;12.138;2023-02-08T09:13:49;33.28;;;14.38;;
12181;SDS011;6154;51.550;12.138;2023-02-08T09:16:18;31.77;;;13.80;;
12181;SDS011;6154;51.550;12.138;2023-02-08T09:18:47;33.80;;;14.63;;
12181;SDS011;6154;51.550;12.138;2023-02-08T09:21:17;35.97;;;15.90;;
12181;SDS011;6154;51.550;12.138;2023-02-08T09:23:47;34.38;;;15.15;;
12181;SDS011;6154;51.550;12.138;2023-02-08T09:26:16;38.95;;;17.15;;
12181;SDS011;6154;51.550;12.138;2023-02-08T09:28:46;45.90;;;23.55;;
12181;SDS011;6154;51.550;12.138;2023-02-08T09:31:17;53.83;;;24.50;;
12181;SDS011;6154;51.550;12.138;2023-02-08T09:33:47;35.90;;;16.00;;
12181;SDS011;6154;51.550;12.138;2023-02-08T09:36:17;37.72;;;18.10;;
12181;SDS011;6154;51.550;12.138;2023-02-08T09:38:47;34.28;;;18.75;;
12181;SDS011;6154;51.550;12.138;2023-02-08T09:41:22;36.22;;;17.52;;
12181;SDS011;6154;51.550;12.138;2023-02-08T09:43:59;38.67;;;16.35;;
12181;SDS011;6154;51.550;12.138;2023-02-08T09:46:42;38.05;;;17.45;;
12181;SDS011;6154;51.550;12.138;2023-02-08T09:49:17;40.17;;;18.20;;
12181;SDS011;6154;51.550;12.138;2023-02-08T09:51:53;41.03;;;18.70;;
12181;SDS011;6154;51.550;12.138;2023-02-08T09:54:26;40.95;;;18.33;;
12181;SDS011;6154;51.550;12.138;2023-02-08T09:56:59;37.65;;;17.00;;
12181;SDS011;6154;51.550;12.138;2023-02-08T09:59:29;29.15;;;16.25;;
12181;SDS011;6154;51.550;12.138;2023-02-08T10:02:01;36.35;;;15.45;;
12181;SDS011;6154;51.550;12.138;2023-02-08T10:04:39;25.70;;;14.18;;
12181;SDS011;6154;51.550;12.138;2023-02-08T10:07:19;30.12;;;14.32;;
12181;SDS011;6154;51.550;12.138;2023-02-08T10:09:47;29.65;;;15.02;;
12181;SDS011;6154;51.550;12.138;2023-02-08T10:12:17;24.40;;;13.60;;
12181;SDS011;6154;51.550;12.138;2023-02-08T10:14:56;27.15;;;13.93;;
12181;SDS011;6154;51.550;12.138;2023-02-08T10:20:39;29.92;;;13.77;;
12181;SDS011;6154;51.550;12.138;2023-02-08T10:23:21;31.50;;;15.05;;
12181;SDS011;6154;51.550;12.138;2023-02-08T10:26:05;27.55;;;14.35;;
12181;SDS011;6154;51.550;12.138;2023-02-08T10:28:46;27.98;;;14.27;;
12181;SDS011;6154;51.550;12.138;2023-02-08T10:31:38;32.22;;;15.50;;
12181;SDS011;6154;51.550;12.138;2023-02-08T10:34:19;27.17;;;15.38;;
12181;SDS011;6154;51.550;12.138;2023-02-08T10:36:57;25.80;;;14.30;;
12181;SDS011;6154;51.550;12.138;2023-02-08T10:39:31;28.98;;;14.65;;
12181;SDS011;6154;51.550;12.138;2023-02-08T10:42:01;28.98;;;15.10;;
12181;SDS011;6154;51.550;12.138;2023-02-08T10:44:33;30.20;;;14.60;;
12181;SDS011;6154;51.550;12.138;2023-02-08T10:47:08;27.75;;;13.73;;
12181;SDS011;6154;51.550;12.138;2023-02-08T10:49:43;24.00;;;14.55;;
12181;SDS011;6154;51.550;12.138;2023-02-08T10:52:17;31.65;;;15.30;;
12181;SDS011;6154;51.550;12.138;2023-02-08T10:54:47;28.65;;;14.55;;
12181;SDS011;6154;51.550;12.138;2023-02-08T10:57:16;29.58;;;15.57;;
12181;SDS011;6154;51.550;12.138;2023-02-08T10:59:50;26.65;;;13.80;;
12181;SDS011;6154;51.550;12.138;2023-02-08T11:02:20;25.83;;;15.52;;
12181;SDS011;6154;51.550;12.138;2023-02-08T11:04:59;31.50;;;14.75;;
12181;SDS011;6154;51.550;12.138;2023-02-08T11:07:29;31.08;;;16.42;;
12181;SDS011;6154;51.550;12.138;2023-02-08T11:10:20;29.12;;;14.80;;
12181;SDS011;6154;51.550;12.138;2023-02-08T11:12:53;30.40;;;15.63;;
12181;SDS011;6154;51.550;12.138;2023-02-08T11:15:25;29.77;;;16.65;;
12181;SDS011;6154;51.550;12.138;2023-02-08T11:17:57;29.63;;;15.43;;
12181;SDS011;6154;51.550;12.138;2023-02-08T11:20:29;31.33;;;16.65;;
12181;SDS011;6154;51.550;12.138;2023-02-08T11:23:00;28.15;;;15.35;;
12181;SDS011;6154;51.550;12.138;2023-02-08T11:25:32;27.20;;;15.45;;
12181;SDS011;6154;51.550;12.138;2023-02-08T11:28:02;29.08;;;15.75;;
12181;SDS011;6154;51.550;12.138;2023-02-08T11:30:31;31.33;;;15.52;;
12181;SDS011;6154;51.550;12.138;2023-02-08T11:33:14;32.75;;;15.95;;
12181;SDS011;6154;51.550;12.138;2023-02-08T11:35:51;35.78;;;15.77;;
12181;SDS011;6154;51.550;12.138;2023-02-08T11:38:22;26.75;;;16.30;;
12181;SDS011;6154;51.550;12.138;2023-02-08T11:40:56;27.70;;;15.70;;
12181;SDS011;6154;51.550;12.138;2023-02-08T11:43:26;31.02;;;18.12;;
12181;SDS011;6154;51.550;12.138;2023-02-08T11:45:57;31.20;;;16.17;;
12181;SDS011;6154;51.550;12.138;2023-02-08T11:48:34;30.12;;;16.95;;
12181;SDS011;6154;51.550;12.138;2023-02-08T11:51:07;35.08;;;17.75;;
12181;SDS011;6154;51.550;12.138;2023-02-08T11:53:39;32.53;;;17.67;;
12181;SDS011;6154;51.550;12.138;2023-02-08T11:56:16;35.08;;;17.55;;
12181;SDS011;6154;51.550;12.138;2023-02-08T11:58:56;38.67;;;17.95;;
12181;SDS011;6154;51.550;12.138;2023-02-08T12:01:34;36.55;;;18.02;;
12181;SDS011;6154;51.550;12.138;2023-02-08T12:04:04;34.55;;;17.95;;
12181;SDS011;6154;51.550;12.138;2023-02-08T12:06:44;30.20;;;17.17;;
12181;SDS011;6154;51.550;12.138;2023-02-08T12:09:29;32.58;;;18.40;;
12181;SDS011;6154;51.550;12.138;2023-02-08T12:12:12;39.63;;;16.65;;
12181;SDS011;6154;51.550;12.138;2023-02-08T12:14:54;29.70;;;17.50;;
12181;SDS011;6154;51.550;12.138;2023-02-08T12:17:37;31.75;;;17.48;;
12181;SDS011;6154;51.550;12.138;2023-02-08T12:20:23;30.30;;;17.83;;
12181;SDS011;6154;51.550;12.138;2023-02-08T12:23:13;32.25;;;18.20;;
12181;SDS011;6154;51.550;12.138;2023-02-08T12:25:55;31.27;;;16.85;;
12181;SDS011;6154;51.550;12.138;2023-02-08T12:28:39;31.80;;;16.45;;
12181;SDS011;6154;51.550;12.138;2023-02-08T12:31:18;28.15;;;16.50;;
12181;SDS011;6154;51.550;12.138;2023-02-08T12:33:57;33.10;;;17.42;;
12181;SDS011;6154;51.550;12.138;2023-02-08T12:39:41;30.35;;;16.12;;
12181;SDS011;6154;51.550;12.138;2023-02-08T12:42:38;27.15;;;15.55;;
12181;SDS011;6154;51.550;12.138;2023-02-08T12:45:37;28.38;;;15.23;;
12181;SDS011;6154;51.550;12.138;2023-02-08T12:48:33;29.02;;;15.55;;
12181;SDS011;6154;51.550;12.138;2023-02-08T12:51:11;28.83;;;16.25;;
12181;SDS011;6154;51.550;12.138;2023-02-08T12:53:49;29.42;;;15.18;;
12181;SDS011;6154;51.550;12.138;2023-02-08T12:56:22;30.67;;;16.42;;
12181;SDS011;6154;51.550;12.138;2023-02-08T12:58:55;27.30;;;15.20;;
12181;SDS011;6154;51.550;12.138;2023-02-08T13:01:41;28.92;;;15.60;;
12181;SDS011;6154;51.550;12.138;2023-02-08T13:04:12;29.05;;;15.82;;
12181;SDS011;6154;51.550;12.138;2023-02-08T13:06:44;24.25;;;14.57;;
12181;SDS011;6154;51.550;12.138;2023-02-08T13:09:16;27.10;;;14.07;;
12181;SDS011;6154;51.550;12.138;2023-02-08T13:11:52;24.08;;;13.73;;
12181;SDS011;6154;51.550;12.138;2023-02-08T13:14:25;23.92;;;13.55;;
12181;SDS011;6154;51.550;12.138;2023-02-08T13:17:02;26.75;;;14.15;;
12181;SDS011;6154;51.550;12.138;2023-02-08T13:19:39;24.35;;;14.63;;
12181;SDS011;6154;51.550;12.138;2023-02-08T13:22:26;23.65;;;13.93;;
12181;SDS011;6154;51.550;12.138;2023-02-08T13:24:58;27.37;;;14.25;;
12181;SDS011;6154;51.550;12.138;2023-02-08T13:27:34;22.08;;;13.40;;
12181;SDS011;6154;51.550;12.138;2023-02-08T13:30:03;22.80;;;13.52;;
12181;SDS011;6154;51.550;12.138;2023-02-08T13:32:35;24.25;;;14.40;;
12181;SDS011;6154;51.550;12.138;2023-02-08T13:35:12;24.77;;;13.43;;
12181;SDS011;6154;51.550;12.138;2023-02-08T13:37:48;23.90;;;12.85;;
12181;SDS011;6154;51.550;12.138;2023-02-08T13:40:19;23.30;;;13.40;;
12181;SDS011;6154;51.550;12.138;2023-02-08T13:42:56;25.92;;;12.77;;
12181;SDS011;6154;51.550;12.138;2023-02-08T13:45:27;25.67;;;14.30;;
12181;SDS011;6154;51.550;12.138;2023-02-08T13:48:00;29.48;;;14.13;;
12181;SDS011;6154;51.550;12.138;2023-02-08T13:50:38;27.25;;;13.10;;
12181;SDS011;6154;51.550;12.138;2023-02-08T13:53:08;24.45;;;13.55;;
12181;SDS011;6154;51.550;12.138;2023-02-08T13:58:37;20.65;;;12.07;;
12181;SDS011;6154;51.550;12.138;2023-02-08T14:01:21;22.92;;;12.73;;
12181;SDS011;6154;51.550;12.138;2023-02-08T14:06:55;19.98;;;11.07;;
12181;SDS011;6154;51.550;12.138;2023-02-08T14:09:28;19.33;;;11.07;;
12181;SDS011;6154;51.550;12.138;2023-02-08T14:12:11;17.10;;;10.23;;
12181;SDS011;6154;51.550;12.138;2023-02-08T14:17:48;22.77;;;11.68;;
12181;SDS011;6154;51.550;12.138;2023-02-08T14:20:25;22.05;;;11.93;;
12181;SDS011;6154;51.550;12.138;2023-02-08T14:22:56;21.42;;;11.30;;
12181;SDS011;6154;51.550;12.138;2023-02-08T14:25:29;20.70;;;11.70;;
12181;SDS011;6154;51.550;12.138;2023-02-08T14:28:05;18.05;;;10.30;;
12181;SDS011;6154;51.550;12.138;2023-02-08T14:30:35;20.10;;;11.73;;
12181;SDS011;6154;51.550;12.138;2023-02-08T14:33:11;18.35;;;10.55;;
12181;SDS011;6154;51.550;12.138;2023-02-08T14:35:51;20.17;;;11.75;;
12181;SDS011;6154;51.550;12.138;2023-02-08T14:41:49;20.50;;;10.45;;
12181;SDS011;6154;51.550;12.138;2023-02-08T14:50:51;22.83;;;12.20;;
12181;SDS011;6154;51.550;12.138;2023-02-08T14:53:28;22.35;;;11.48;;
12181;SDS011;6154;51.550;12.138;2023-02-08T14:56:04;21.75;;;11.55;;
12181;SDS011;6154;51.550;12.138;2023-02-08T14:58:42;26.42;;;12.30;;
12181;SDS011;6154;51.550;12.138;2023-02-08T15:01:13;25.75;;;12.98;;
12181;SDS011;6154;51.550;12.138;2023-02-08T15:03:46;25.85;;;11.95;;
12181;SDS011;6154;51.550;12.138;2023-02-08T15:09:28;25.23;;;12.00;;
12181;SDS011;6154;51.550;12.138;2023-02-08T15:11:58;27.42;;;13.15;;
12181;SDS011;6154;51.550;12.138;2023-02-08T15:14:29;28.80;;;12.80;;
12181;SDS011;6154;51.550;12.138;2023-02-08T15:17:00;32.42;;;15.25;;
12181;SDS011;6154;51.550;12.138;2023-02-08T15:19:29;29.95;;;16.30;;
12181;SDS011;6154;51.550;12.138;2023-02-08T15:24:48;34.35;;;15.98;;
12181;SDS011;6154;51.550;12.138;2023-02-08T15:27:18;32.10;;;15.25;;
12181;SDS011;6154;51.550;12.138;2023-02-08T15:29:49;26.10;;;15.13;;
12181;SDS011;6154;51.550;12.138;2023-02-08T15:32:17;31.83;;;15.73;;
12181;SDS011;6154;51.550;12.138;2023-02-08T15:34:49;27.55;;;14.50;;